Chickering American River Reserve, California Weather observations

Data are for 10 minute period ending at time listed.
 Day   Time   Solar   Ave.   Ave.  Ave.  Vector  Max.   Baro.   Total    
  of    of     Rad.   Air    Rel.  Wind   Wind   Wind  Press.  Precip.   
Year   Day            Temp.  Hum.  Speed  Dir.   Gust                    
2015   (PST)  Kw/m2    F      %     mph   deg.    mph    mb.     in.     
-------------------------------------------------------------------------
 241    3:10   0.00   54.8    59    0.9   196     2.9   819.5    0.00 
 241    3:20   0.00   54.1    61    0.8   214     2.2   819.5    0.00 
 241    3:30   0.00   54.3    60    1.3   235     3.6   819.5    0.00 
 241    3:40   0.00   54.9    59    1.2   226     5.4   819.5    0.00 
 241    3:50   0.00   55.1    58    0.6   176     2.7   819.5    0.00 
 241    4:00   0.00   54.0    61    0.8   168     3.3   819.5    0.00 
 241    4:10   0.00   53.5    62    1.0   167     2.6   819.5    0.00 
 241    4:20   0.00   53.8    61    0.9   180     4.0   819.5    0.00 
 241    4:30   0.00   54.7    59    0.8   207     2.6   819.4    0.00 
 241    4:40   0.00   56.2    56    1.2   222     5.0   819.4    0.00 
 241    4:50   0.00   55.5    58    1.3   273     3.1   819.5    0.00 
 241    5:00   0.00   54.8    59    0.7    17     2.1   819.5    0.00 
 241    5:10   0.00   53.7    61    1.0    77     2.5   819.5    0.00 
 241    5:20   0.00   53.1    62    0.7    38     2.5   819.7    0.00 
 241    5:30   0.00   53.1    62    0.5   266     2.0   819.8    0.00 
 241    5:40   0.00   53.0    62    1.3    28     4.7   819.9    0.00 
 241    5:50   0.00   52.4    64    0.2    72     1.3   820.0    0.00 
 241    6:00   0.01   52.1    64    0.6    48     2.4   819.9    0.00 
 241    6:10   0.01   52.2    64    0.3   344     1.7   820.1    0.00 
 241    6:20   0.03   52.5    64    0.5   263     1.9   820.1    0.00 
 241    6:30   0.03   52.6    64    0.9   156     2.5   820.2    0.00 
 241    6:40   0.04   53.3    63    0.6   273     1.8   820.2    0.00 
 241    6:50   0.06   54.4    62    0.3    85     1.7   820.3    0.00 
 241    7:00   0.10   55.2    62    0.3    44     1.4   820.3    0.00 
 241    7:10   0.07   55.9    60    0.2    70     1.2   820.4    0.00 
 241    7:20   0.10   56.1    59    0.8   138     4.4   820.3    0.00 
 241    7:30   0.15   56.6    56    1.3   170     5.0   820.3    0.00 
 241    7:40   0.32   58.2    53    1.2   153     6.9   820.2    0.00 
 241    7:50   0.40   60.6    48    1.2   336     4.5   820.1    0.00 
 241    8:00   0.40   60.9    48    1.6   302     5.4   820.1    0.00 
 241    8:10   0.34   61.8    47    1.3    42     5.1   820.1    0.00 
 241    8:20   0.32   62.1    48    0.9    59     2.8   820.1    0.00 
 241    8:30   0.36   63.0    46    1.6    89     6.1   820.0    0.00 
 241    8:40   0.36   62.8    47    1.8   102     5.6   819.9    0.00 
 241    8:50   0.27   63.5    46    1.7    58     5.5   819.8    0.00 
 241    9:00   0.41   63.4    47    1.9   109     8.5   819.9    0.00 
 241    9:10   0.35   64.8    46    1.4    84     4.8   819.8    0.00 
 241    9:20   0.43   65.5    44    1.5   140     7.2   819.9    0.00 
 241    9:30   0.38   65.1    45    2.2   180     5.5   819.8    0.00 
 241    9:40   0.35   65.2    45    1.6    94     7.6   819.8    0.00 
 241    9:50   0.49   66.6    43    1.5    30     5.0   819.8    0.00 
 241   10:00   0.60   67.1    43    2.5    46     5.7   819.8    0.00 
 241   10:10   0.25   67.0    43    1.6   108     7.5   819.8    0.00 
 241   10:20   0.31   65.4    45    1.8   133     7.4   820.0    0.00 
 241   10:30   0.33   65.6    46    2.7   148     8.9   820.0    0.00 
 241   10:40   0.29   65.6    45    1.5   130     5.3   819.9    0.00 
 241   10:50   0.35   65.2    46    2.3   148     6.9   820.1    0.00 
 241   11:00   0.42   65.9    45    2.7   328     9.6   820.1    0.00 
 241   11:10   0.36   65.4    46    2.3    30     8.5   820.1    0.00 
 241   11:20   0.47   65.2    46    2.0    97     8.0   820.1    0.00 
 241   11:30   0.39   66.2    44    3.1   211     9.4   820.1    0.00 
 241   11:40   0.34   66.4    44    2.0   136     7.6   820.1    0.00 
 241   11:50   0.23   65.8    44    1.8   136     8.0   820.1    0.00 
 241   12:00   0.34   65.6    45    2.4   119     7.3   820.1    0.00 
 241   12:10   0.32   65.7    45    3.1   143     8.6   820.0    0.00 
 241   12:20   0.35   66.0    45    2.3   123    10.7   820.0    0.00 
 241   12:30   0.33   66.4    45    2.4   150     5.8   820.1    0.00 
 241   12:40   0.51   67.5    44    2.3   167    14.1   820.0    0.00 
 241   12:50   0.63   68.6    43    3.0   199     9.4   819.9    0.00 
 241   13:00   0.59   69.3    42    2.2    92     5.5   819.9    0.00 
 241   13:10   0.73   70.0    40    2.0    56     6.5   819.8    0.00 
 241   13:20   0.81   70.2    38    3.8   348    17.2   819.8    0.00 
 241   13:30   0.91   70.2    38    3.8    82    15.1   819.8    0.00 
 241   13:40   0.80   70.2    38    3.4    92     9.7   819.9    0.00 
 241   13:50   0.79   70.4    39    3.5    27    11.4   819.9    0.00 
 241   14:00   0.44   70.4    39    2.4    69     6.9   820.0    0.00 
 241   14:10   0.46   69.6    40    2.7    69     8.7   820.0    0.00 
 241   14:20   0.66   69.8    40    3.2    98    11.7   820.0    0.00 
 241   14:30   0.66   69.9    40    2.9   151     8.4   820.0    0.00 
 241   14:40   0.66   69.5    41    2.9    64     8.0   819.9    0.00 
 241   14:50   0.67   69.7    40    2.7   183     9.1   819.9    0.00 
 241   15:00   0.57   70.2    40    3.4   122    12.2   819.8    0.00 
 241   15:10   0.45   68.4    40    2.6    17     8.4   819.8    0.00 
 241   15:20   0.47   68.5    39    3.7   202    12.7   819.7    0.00 
 241   15:30   0.38   67.6    40    2.6   143    11.1   819.6    0.00 
 241   15:40   0.35   67.4    42    2.2    52     8.6   819.5    0.00 
 241   15:50   0.35   67.1    43    3.0    44     9.6   819.4    0.00 
 241   16:00   0.33   67.4    44    2.6   126     9.9   819.4    0.00 
 241   16:10   0.36   67.0    46    2.6   342     6.4   819.3    0.00 
 241   16:20   0.27   66.0    48    3.2    99     9.8   819.2    0.00 
 241   16:30   0.24   66.1    47    2.2    74     7.8   819.2    0.00 
 241   16:40   0.34   65.3    50    2.5   144     7.3   819.1    0.00 
 241   16:50   0.10   64.6    51    1.9    41     8.1   819.2    0.00 
 241   17:00   0.06   64.1    53    2.0   146    12.5   819.1    0.00 
 241   17:10   0.07   63.4    57    2.1   167     8.0   819.2    0.00 
 241   17:20   0.06   62.6    61    1.5    98     6.3   819.2    0.00 
 241   17:30   0.04   62.3    62    1.9    82     5.3   819.4    0.00 
 241   17:40   0.04   61.6    65    1.7   106     6.9   819.4    0.00 
 241   17:50   0.03   61.1    67    1.6    67     5.5   819.4    0.00 
 241   18:00   0.03   61.0    68    1.8   137     5.2   819.4    0.00 
 241   18:10   0.02   60.5    69    1.6    68     6.7   819.4    0.00 
 241   18:20   0.00   60.2    69    1.9    93     6.1   819.4    0.00 
 241   18:30   0.00   59.9    70    2.2    81     7.9   819.6    0.00 
 241   18:40   0.00   59.6    71    2.1    25     7.5   819.6    0.00 
 241   18:50   0.00   59.3    71    1.2    53     5.0   819.6    0.00 
 241   19:00   0.00   59.0    71    1.5    64     5.6   819.5    0.00 
 241   19:10   0.00   58.9    72    0.9    48     4.2   819.5    0.00 
 241   19:20   0.00   58.6    72    2.2    23     8.9   819.6    0.00 
 241   19:30   0.00   58.5    72    1.1    52     5.3   819.8    0.00 
 241   19:40   0.00   58.4    73    1.5   154     6.4   819.8    0.00 
 241   19:50   0.00   58.4    74    1.8    83     6.1   819.8    0.00 
 241   20:00   0.00   58.3    75    1.5   240     4.5   819.9    0.00 
 241   20:10   0.00   58.2    75    1.4   121     4.8   819.9    0.00 
 241   20:20   0.00   58.2    75    1.0   108     3.5   819.9    0.00 
 241   20:30   0.00   58.2    75    1.6   140     7.0   820.0    0.00 
 241   20:40   0.00   58.2    74    1.0    34     6.3   820.0    0.00 
 241   20:50   0.00   58.1    74    1.5   215     5.0   819.9    0.00 
 241   21:00   0.00   58.1    73    1.5   121     7.0   820.0    0.00 
 241   21:10   0.00   57.9    74    1.0   160     4.3   819.9    0.00 
 241   21:20   0.00   57.9    72    1.7   254     6.0   819.8    0.00 
 241   21:30   0.00   57.8    73    1.4   329     6.1   819.8    0.00 
 241   21:40   0.00   57.5    73    1.4   139     6.8   819.8    0.00 
 241   21:50   0.00   57.5    73    2.1    14     6.9   819.7    0.00 
 241   22:00   0.00   57.4    74    1.6   122     7.6   819.7    0.00 
 241   22:10   0.00   57.2    74    1.4    90     4.1   819.7    0.00 
 241   22:20   0.00   57.0    75    1.5   150     7.0   819.6    0.00 
 241   22:30   0.00   56.7    75    1.7   110     5.4   819.6    0.00 
 241   22:40   0.00   56.3    75    0.7    22     2.3   819.7    0.00 
 241   22:50   0.00   55.8    77    1.1   102     3.0   819.7    0.00 
 241   23:00   0.00   55.4    77    1.8   342     6.4   819.7    0.00 
 241   23:10   0.00   55.5    77    1.3   145     3.2   819.7    0.00 
 241   23:20   0.00   55.7    77    1.7    49     7.6   819.9    0.00 
 241   23:30   0.00   55.9    77    1.1    45     2.7   819.9    0.00 
 241   23:40   0.00   55.5    78    1.3    48     3.5   819.9    0.00 
 241   23:50   0.00   55.5    78    1.7   148     4.2   819.9    0.00 
 242    0:00   0.00   55.6    78    1.2    86     3.9   819.9    0.00 
 242    0:10   0.00   55.5    77    1.5   335     4.4   819.9    0.00 
 242    0:20   0.00   55.7    77    0.7   356     2.3   819.9    0.00 
 242    0:30   0.00   55.7    76    1.2   324     4.0   819.9    0.00 
 242    0:40   0.00   55.5    76    1.2   356     3.4   819.8    0.00 
 242    0:50   0.00   55.4    77    0.8    10     3.1   819.8    0.00 
 242    1:00   0.00   55.1    77    1.5   332     4.5   819.8    0.00 
 242    1:10   0.00   55.5    77    0.9    23     4.5   819.7    0.00 
 242    1:20   0.00   55.6    77    1.0    90     3.5   819.7    0.00 
 242    1:30   0.00   55.6    77    1.2    19     2.8   819.6    0.00 
 242    1:40   0.00   55.3    78    0.5    13     2.3   819.6    0.00 
 242    1:50   0.00   54.9    79    1.2   329     6.9   819.6    0.00 
 242    2:00   0.00   54.7    78    0.7   321     2.0   819.7    0.00 
 242    2:10   0.00   54.5    77    1.0   271     3.6   819.7    0.00 
 242    2:20   0.00   54.3    77    0.5   276     1.5   819.7    0.00 
 242    2:30   0.00   53.7    77    1.1   288     3.1   819.8    0.00 
 242    2:40   0.00   53.3    77    0.5   277     1.9   819.8    0.00 
 242    2:50   0.00   52.7    77    1.5   279     6.0   819.7    0.00 
 242    3:00   0.00   52.3    78    0.6   255     2.0   819.7    0.00 

Return to Chickering American River Reserve graphs page.


Western Regional Climate Center,wrcc@dri.edu